Ashley, Wisconsin
Current Conditions -  °F | °C
As of 4:35 AM on Thursday 27 Nov 2014 (Local Time) from KCWA Reporting Station
Light Snow Light Snow  
Wind Chill:   Ceiling: 5000
Heat Index: 14°   Visibility: 10mi
Dew Point: 12°   Wind: 10mph
Humidity: 93%   Direction: 310°NW
Pressure: 30.27"   Gusts: NA
Location:  44.7605°N, 89.5918°W
Report Text: KCWA 271035Z AUTO 31009KT 10SM -SN SCT020 OVC050 M10/M11 A3027 RMK AO2
Loading
Personal Weather Stations






























Interactive Weather Map New forecast layout! Learn more

10-Day Weather Forecast

Advertisements
Track Severe Weather on mobile